sensor_id;sensor_type;location;lat;lon;timestamp;P1;durP1;ratioP1;P2;durP2;ratioP2
67889;SDS011;54685;52.082;5.426;2024-03-02T00:00:31;1.42;;;1.00;;
67889;SDS011;54685;52.082;5.426;2024-03-02T00:02:58;3.97;;;0.98;;
67889;SDS011;54685;52.082;5.426;2024-03-02T00:05:24;2.80;;;0.93;;
67889;SDS011;54685;52.082;5.426;2024-03-02T00:07:55;3.88;;;1.05;;
67889;SDS011;54685;52.082;5.426;2024-03-02T00:10:26;2.05;;;0.85;;
67889;SDS011;54685;52.082;5.426;2024-03-02T00:13:03;5.30;;;1.10;;
67889;SDS011;54685;52.082;5.426;2024-03-02T00:18:00;4.00;;;1.10;;
67889;SDS011;54685;52.082;5.426;2024-03-02T00:20:27;1.08;;;0.80;;
67889;SDS011;54685;52.082;5.426;2024-03-02T00:23:03;1.00;;;0.88;;
67889;SDS011;54685;52.082;5.426;2024-03-02T00:25:40;2.50;;;0.88;;
67889;SDS011;54685;52.082;5.426;2024-03-02T00:28:21;3.38;;;1.30;;
67889;SDS011;54685;52.082;5.426;2024-03-02T00:30:55;1.20;;;0.73;;
67889;SDS011;54685;52.082;5.426;2024-03-02T00:33:32;3.88;;;1.50;;
67889;SDS011;54685;52.082;5.426;2024-03-02T00:36:03;4.10;;;1.02;;
67889;SDS011;54685;52.082;5.426;2024-03-02T00:38:32;2.42;;;1.10;;
67889;SDS011;54685;52.082;5.426;2024-03-02T00:41:03;4.47;;;1.00;;
67889;SDS011;54685;52.082;5.426;2024-03-02T00:43:41;3.63;;;1.33;;
67889;SDS011;54685;52.082;5.426;2024-03-02T00:46:13;1.65;;;0.90;;
67889;SDS011;54685;52.082;5.426;2024-03-02T00:48:47;0.73;;;0.70;;
67889;SDS011;54685;52.082;5.426;2024-03-02T00:51:17;1.95;;;0.63;;
67889;SDS011;54685;52.082;5.426;2024-03-02T00:53:44;0.20;;;0.20;;
67889;SDS011;54685;52.082;5.426;2024-03-02T00:56:11;0.40;;;0.20;;
67889;SDS011;54685;52.082;5.426;2024-03-02T00:58:38;0.65;;;0.35;;
67889;SDS011;54685;52.082;5.426;2024-03-02T01:01:06;0.60;;;0.32;;
67889;SDS011;54685;52.082;5.426;2024-03-02T01:03:34;0.30;;;0.15;;
67889;SDS011;54685;52.082;5.426;2024-03-02T01:06:01;1.17;;;0.40;;
67889;SDS011;54685;52.082;5.426;2024-03-02T01:08:28;0.98;;;0.38;;
67889;SDS011;54685;52.082;5.426;2024-03-02T01:10:55;0.68;;;0.30;;
67889;SDS011;54685;52.082;5.426;2024-03-02T01:13:22;2.10;;;0.73;;
67889;SDS011;54685;52.082;5.426;2024-03-02T01:15:50;1.40;;;0.30;;
67889;SDS011;54685;52.082;5.426;2024-03-02T01:18:17;1.23;;;0.40;;
67889;SDS011;54685;52.082;5.426;2024-03-02T01:20:44;0.65;;;0.30;;
67889;SDS011;54685;52.082;5.426;2024-03-02T01:23:13;1.40;;;0.20;;
67889;SDS011;54685;52.082;5.426;2024-03-02T01:25:40;1.50;;;0.50;;
67889;SDS011;54685;52.082;5.426;2024-03-02T01:28:06;0.32;;;0.32;;
67889;SDS011;54685;52.082;5.426;2024-03-02T01:30:36;0.30;;;0.30;;
67889;SDS011;54685;52.082;5.426;2024-03-02T01:33:03;0.32;;;0.20;;
67889;SDS011;54685;52.082;5.426;2024-03-02T01:35:31;0.30;;;0.30;;
67889;SDS011;54685;52.082;5.426;2024-03-02T01:37:58;1.05;;;0.40;;
67889;SDS011;54685;52.082;5.426;2024-03-02T01:40:25;0.40;;;0.40;;
67889;SDS011;54685;52.082;5.426;2024-03-02T01:42:53;0.43;;;0.30;;
67889;SDS011;54685;52.082;5.426;2024-03-02T01:45:21;0.40;;;0.30;;
67889;SDS011;54685;52.082;5.426;2024-03-02T01:47:48;0.85;;;0.30;;
67889;SDS011;54685;52.082;5.426;2024-03-02T01:50:15;0.30;;;0.30;;
67889;SDS011;54685;52.082;5.426;2024-03-02T01:52:42;0.45;;;0.30;;
67889;SDS011;54685;52.082;5.426;2024-03-02T01:55:10;0.40;;;0.38;;
67889;SDS011;54685;52.082;5.426;2024-03-02T01:57:37;0.38;;;0.38;;
67889;SDS011;54685;52.082;5.426;2024-03-02T02:00:04;0.32;;;0.20;;
67889;SDS011;54685;52.082;5.426;2024-03-02T02:02:36;0.47;;;0.30;;
67889;SDS011;54685;52.082;5.426;2024-03-02T02:05:03;3.53;;;0.57;;
67889;SDS011;54685;52.082;5.426;2024-03-02T02:07:31;0.22;;;0.22;;
67889;SDS011;54685;52.082;5.426;2024-03-02T02:09:58;0.30;;;0.30;;
67889;SDS011;54685;52.082;5.426;2024-03-02T02:12:24;0.40;;;0.40;;
67889;SDS011;54685;52.082;5.426;2024-03-02T02:14:51;0.38;;;0.38;;
67889;SDS011;54685;52.082;5.426;2024-03-02T02:17:18;0.30;;;0.30;;
67889;SDS011;54685;52.082;5.426;2024-03-02T02:19:45;0.50;;;0.40;;
67889;SDS011;54685;52.082;5.426;2024-03-02T02:22:12;0.88;;;0.30;;
67889;SDS011;54685;52.082;5.426;2024-03-02T02:24:39;1.98;;;0.60;;
67889;SDS011;54685;52.082;5.426;2024-03-02T02:27:08;0.57;;;0.43;;
67889;SDS011;54685;52.082;5.426;2024-03-02T02:29:36;1.17;;;0.50;;
67889;SDS011;54685;52.082;5.426;2024-03-02T02:32:03;1.55;;;0.47;;
67889;SDS011;54685;52.082;5.426;2024-03-02T02:34:30;0.30;;;0.30;;
67889;SDS011;54685;52.082;5.426;2024-03-02T02:36:57;1.65;;;0.45;;
67889;SDS011;54685;52.082;5.426;2024-03-02T02:39:24;0.57;;;0.30;;
67889;SDS011;54685;52.082;5.426;2024-03-02T02:41:51;0.40;;;0.40;;
67889;SDS011;54685;52.082;5.426;2024-03-02T02:44:18;0.45;;;0.45;;
67889;SDS011;54685;52.082;5.426;2024-03-02T02:46:45;0.30;;;0.30;;
67889;SDS011;54685;52.082;5.426;2024-03-02T02:49:12;0.30;;;0.30;;
67889;SDS011;54685;52.082;5.426;2024-03-02T02:51:39;1.95;;;0.50;;
67889;SDS011;54685;52.082;5.426;2024-03-02T02:54:06;0.98;;;0.43;;
67889;SDS011;54685;52.082;5.426;2024-03-02T02:56:33;0.77;;;0.50;;
67889;SDS011;54685;52.082;5.426;2024-03-02T02:59:00;0.38;;;0.38;;
67889;SDS011;54685;52.082;5.426;2024-03-02T03:01:27;0.40;;;0.40;;
67889;SDS011;54685;52.082;5.426;2024-03-02T03:03:54;0.40;;;0.40;;
67889;SDS011;54685;52.082;5.426;2024-03-02T03:06:21;0.22;;;0.22;;
67889;SDS011;54685;52.082;5.426;2024-03-02T03:08:50;0.93;;;0.47;;
67889;SDS011;54685;52.082;5.426;2024-03-02T03:11:17;0.40;;;0.40;;
67889;SDS011;54685;52.082;5.426;2024-03-02T03:13:44;1.00;;;0.30;;
67889;SDS011;54685;52.082;5.426;2024-03-02T03:16:11;2.33;;;0.70;;
67889;SDS011;54685;52.082;5.426;2024-03-02T03:18:38;0.22;;;0.20;;
67889;SDS011;54685;52.082;5.426;2024-03-02T03:21:05;1.40;;;0.30;;
67889;SDS011;54685;52.082;5.426;2024-03-02T03:23:32;2.50;;;0.40;;
67889;SDS011;54685;52.082;5.426;2024-03-02T03:25:58;0.73;;;0.30;;
67889;SDS011;54685;52.082;5.426;2024-03-02T03:28:25;0.63;;;0.30;;
67889;SDS011;54685;52.082;5.426;2024-03-02T03:30:52;0.30;;;0.30;;
67889;SDS011;54685;52.082;5.426;2024-03-02T03:33:19;0.55;;;0.40;;
67889;SDS011;54685;52.082;5.426;2024-03-02T03:35:46;0.75;;;0.32;;
67889;SDS011;54685;52.082;5.426;2024-03-02T03:38:12;0.63;;;0.35;;
67889;SDS011;54685;52.082;5.426;2024-03-02T03:40:39;1.30;;;0.47;;
67889;SDS011;54685;52.082;5.426;2024-03-02T03:43:06;0.60;;;0.40;;
67889;SDS011;54685;52.082;5.426;2024-03-02T03:45:33;0.65;;;0.38;;
67889;SDS011;54685;52.082;5.426;2024-03-02T03:48:00;2.85;;;0.45;;
67889;SDS011;54685;52.082;5.426;2024-03-02T03:50:28;1.10;;;0.40;;
67889;SDS011;54685;52.082;5.426;2024-03-02T03:52:54;1.17;;;0.22;;
67889;SDS011;54685;52.082;5.426;2024-03-02T03:55:21;0.38;;;0.30;;
67889;SDS011;54685;52.082;5.426;2024-03-02T03:57:48;1.55;;;0.47;;
67889;SDS011;54685;52.082;5.426;2024-03-02T04:00:15;0.40;;;0.40;;
67889;SDS011;54685;52.082;5.426;2024-03-02T04:02:42;0.63;;;0.35;;
67889;SDS011;54685;52.082;5.426;2024-03-02T04:05:08;0.63;;;0.30;;
67889;SDS011;54685;52.082;5.426;2024-03-02T04:07:37;2.35;;;0.38;;
67889;SDS011;54685;52.082;5.426;2024-03-02T04:10:07;1.48;;;0.50;;
67889;SDS011;54685;52.082;5.426;2024-03-02T04:12:36;0.63;;;0.30;;
67889;SDS011;54685;52.082;5.426;2024-03-02T04:15:04;1.48;;;0.40;;
67889;SDS011;54685;52.082;5.426;2024-03-02T04:17:32;1.33;;;0.60;;
67889;SDS011;54685;52.082;5.426;2024-03-02T04:20:00;0.25;;;0.10;;
67889;SDS011;54685;52.082;5.426;2024-03-02T04:22:27;1.58;;;0.45;;
67889;SDS011;54685;52.082;5.426;2024-03-02T04:24:54;1.80;;;0.50;;
67889;SDS011;54685;52.082;5.426;2024-03-02T04:27:21;0.25;;;0.25;;
67889;SDS011;54685;52.082;5.426;2024-03-02T04:29:48;1.58;;;0.75;;
67889;SDS011;54685;52.082;5.426;2024-03-02T04:32:15;0.50;;;0.30;;
67889;SDS011;54685;52.082;5.426;2024-03-02T04:34:42;0.63;;;0.30;;
67889;SDS011;54685;52.082;5.426;2024-03-02T04:37:10;0.35;;;0.30;;
67889;SDS011;54685;52.082;5.426;2024-03-02T04:39:38;0.30;;;0.30;;
67889;SDS011;54685;52.082;5.426;2024-03-02T04:42:05;1.38;;;0.50;;
67889;SDS011;54685;52.082;5.426;2024-03-02T04:44:32;1.33;;;0.50;;
67889;SDS011;54685;52.082;5.426;2024-03-02T04:46:59;1.85;;;0.43;;
67889;SDS011;54685;52.082;5.426;2024-03-02T04:49:26;1.65;;;0.55;;
67889;SDS011;54685;52.082;5.426;2024-03-02T04:51:53;1.05;;;0.50;;
67889;SDS011;54685;52.082;5.426;2024-03-02T04:54:19;0.10;;;0.10;;
67889;SDS011;54685;52.082;5.426;2024-03-02T04:56:46;0.80;;;0.32;;
67889;SDS011;54685;52.082;5.426;2024-03-02T04:59:17;1.02;;;0.20;;
67889;SDS011;54685;52.082;5.426;2024-03-02T05:01:44;0.55;;;0.25;;
67889;SDS011;54685;52.082;5.426;2024-03-02T05:04:12;0.40;;;0.25;;
67889;SDS011;54685;52.082;5.426;2024-03-02T05:06:39;2.17;;;0.52;;
67889;SDS011;54685;52.082;5.426;2024-03-02T05:09:09;2.35;;;0.38;;
67889;SDS011;54685;52.082;5.426;2024-03-02T05:11:35;0.98;;;0.30;;
67889;SDS011;54685;52.082;5.426;2024-03-02T05:14:05;1.63;;;0.38;;
67889;SDS011;54685;52.082;5.426;2024-03-02T05:16:36;1.75;;;0.30;;
67889;SDS011;54685;52.082;5.426;2024-03-02T05:19:04;1.08;;;0.40;;
67889;SDS011;54685;52.082;5.426;2024-03-02T05:21:33;1.02;;;0.52;;
67889;SDS011;54685;52.082;5.426;2024-03-02T05:24:00;1.55;;;0.40;;
67889;SDS011;54685;52.082;5.426;2024-03-02T05:26:30;1.42;;;0.60;;
67889;SDS011;54685;52.082;5.426;2024-03-02T05:28:57;0.85;;;0.50;;
67889;SDS011;54685;52.082;5.426;2024-03-02T05:31:23;2.67;;;0.32;;
67889;SDS011;54685;52.082;5.426;2024-03-02T05:33:50;2.55;;;0.70;;
67889;SDS011;54685;52.082;5.426;2024-03-02T05:38:49;2.00;;;0.50;;
67889;SDS011;54685;52.082;5.426;2024-03-02T05:41:16;0.45;;;0.30;;
67889;SDS011;54685;52.082;5.426;2024-03-02T05:43:43;2.83;;;0.40;;
67889;SDS011;54685;52.082;5.426;2024-03-02T05:46:10;2.05;;;0.40;;
67889;SDS011;54685;52.082;5.426;2024-03-02T05:48:38;5.25;;;0.40;;
67889;SDS011;54685;52.082;5.426;2024-03-02T05:51:04;1.15;;;0.40;;
67889;SDS011;54685;52.082;5.426;2024-03-02T05:53:31;2.00;;;0.40;;
67889;SDS011;54685;52.082;5.426;2024-03-02T05:55:58;1.23;;;0.35;;
67889;SDS011;54685;52.082;5.426;2024-03-02T05:58:28;1.40;;;0.30;;
67889;SDS011;54685;52.082;5.426;2024-03-02T06:01:19;2.22;;;0.35;;
67889;SDS011;54685;52.082;5.426;2024-03-02T06:03:46;1.60;;;0.55;;
67889;SDS011;54685;52.082;5.426;2024-03-02T06:06:13;2.10;;;0.50;;
67889;SDS011;54685;52.082;5.426;2024-03-02T06:08:40;5.05;;;1.38;;
67889;SDS011;54685;52.082;5.426;2024-03-02T06:11:06;1.67;;;0.40;;
67889;SDS011;54685;52.082;5.426;2024-03-02T06:13:33;2.08;;;0.68;;
67889;SDS011;54685;52.082;5.426;2024-03-02T06:16:00;1.38;;;0.30;;
67889;SDS011;54685;52.082;5.426;2024-03-02T06:18:27;0.65;;;0.40;;
67889;SDS011;54685;52.082;5.426;2024-03-02T06:20:54;2.17;;;0.80;;
67889;SDS011;54685;52.082;5.426;2024-03-02T06:23:20;1.63;;;0.60;;
67889;SDS011;54685;52.082;5.426;2024-03-02T06:25:47;5.60;;;0.85;;
67889;SDS011;54685;52.082;5.426;2024-03-02T06:28:14;1.70;;;0.60;;
67889;SDS011;54685;52.082;5.426;2024-03-02T06:30:41;0.95;;;0.50;;
67889;SDS011;54685;52.082;5.426;2024-03-02T06:33:09;2.40;;;0.40;;
67889;SDS011;54685;52.082;5.426;2024-03-02T06:35:36;0.85;;;0.38;;
67889;SDS011;54685;52.082;5.426;2024-03-02T06:38:03;0.50;;;0.40;;
67889;SDS011;54685;52.082;5.426;2024-03-02T06:40:30;2.28;;;0.40;;
67889;SDS011;54685;52.082;5.426;2024-03-02T06:42:56;2.78;;;0.88;;
67889;SDS011;54685;52.082;5.426;2024-03-02T06:45:23;3.03;;;0.43;;
67889;SDS011;54685;52.082;5.426;2024-03-02T06:47:50;0.93;;;0.40;;
67889;SDS011;54685;52.082;5.426;2024-03-02T06:50:17;3.10;;;0.80;;
67889;SDS011;54685;52.082;5.426;2024-03-02T06:52:44;3.33;;;0.60;;
67889;SDS011;54685;52.082;5.426;2024-03-02T06:55:10;2.10;;;0.30;;
67889;SDS011;54685;52.082;5.426;2024-03-02T06:57:37;2.40;;;0.50;;
67889;SDS011;54685;52.082;5.426;2024-03-02T07:00:04;1.35;;;0.45;;
67889;SDS011;54685;52.082;5.426;2024-03-02T07:02:35;2.22;;;0.38;;
67889;SDS011;54685;52.082;5.426;2024-03-02T07:05:02;1.08;;;0.47;;
67889;SDS011;54685;52.082;5.426;2024-03-02T07:07:30;3.15;;;0.47;;
67889;SDS011;54685;52.082;5.426;2024-03-02T07:09:56;0.85;;;0.57;;
67889;SDS011;54685;52.082;5.426;2024-03-02T07:12:23;1.73;;;0.55;;
67889;SDS011;54685;52.082;5.426;2024-03-02T07:14:50;2.17;;;0.63;;
67889;SDS011;54685;52.082;5.426;2024-03-02T07:17:30;1.35;;;0.35;;
67889;SDS011;54685;52.082;5.426;2024-03-02T07:19:58;3.00;;;0.90;;
67889;SDS011;54685;52.082;5.426;2024-03-02T07:22:24;1.17;;;0.50;;
67889;SDS011;54685;52.082;5.426;2024-03-02T07:24:51;2.15;;;0.80;;
67889;SDS011;54685;52.082;5.426;2024-03-02T07:27:18;1.73;;;0.63;;
67889;SDS011;54685;52.082;5.426;2024-03-02T07:29:45;1.35;;;0.45;;
67889;SDS011;54685;52.082;5.426;2024-03-02T07:32:12;1.85;;;0.52;;
67889;SDS011;54685;52.082;5.426;2024-03-02T07:34:39;3.42;;;0.60;;
67889;SDS011;54685;52.082;5.426;2024-03-02T07:37:06;3.58;;;1.00;;
67889;SDS011;54685;52.082;5.426;2024-03-02T07:39:33;4.38;;;0.40;;
67889;SDS011;54685;52.082;5.426;2024-03-02T07:42:00;2.72;;;0.43;;
67889;SDS011;54685;52.082;5.426;2024-03-02T07:44:27;1.80;;;0.60;;
67889;SDS011;54685;52.082;5.426;2024-03-02T07:46:54;3.03;;;0.50;;
67889;SDS011;54685;52.082;5.426;2024-03-02T07:49:24;1.13;;;0.52;;
67889;SDS011;54685;52.082;5.426;2024-03-02T07:51:51;2.25;;;0.77;;
67889;SDS011;54685;52.082;5.426;2024-03-02T07:54:17;0.93;;;0.47;;
67889;SDS011;54685;52.082;5.426;2024-03-02T07:56:44;3.65;;;0.93;;
67889;SDS011;54685;52.082;5.426;2024-03-02T07:59:11;2.05;;;0.47;;
67889;SDS011;54685;52.082;5.426;2024-03-02T08:01:38;2.30;;;0.70;;
67889;SDS011;54685;52.082;5.426;2024-03-02T08:04:05;3.38;;;0.60;;
67889;SDS011;54685;52.082;5.426;2024-03-02T08:06:33;6.15;;;0.60;;
67889;SDS011;54685;52.082;5.426;2024-03-02T08:09:00;4.30;;;0.80;;
67889;SDS011;54685;52.082;5.426;2024-03-02T08:11:27;2.83;;;0.70;;
67889;SDS011;54685;52.082;5.426;2024-03-02T08:13:55;2.83;;;0.70;;
67889;SDS011;54685;52.082;5.426;2024-03-02T08:16:22;3.78;;;0.73;;
67889;SDS011;54685;52.082;5.426;2024-03-02T08:18:49;1.73;;;0.70;;
67889;SDS011;54685;52.082;5.426;2024-03-02T08:21:17;2.90;;;0.60;;
67889;SDS011;54685;52.082;5.426;2024-03-02T08:23:44;1.90;;;0.40;;
67889;SDS011;54685;52.082;5.426;2024-03-02T08:26:11;5.55;;;0.80;;
67889;SDS011;54685;52.082;5.426;2024-03-02T08:28:38;1.02;;;0.70;;
67889;SDS011;54685;52.082;5.426;2024-03-02T08:31:08;1.40;;;0.50;;
67889;SDS011;54685;52.082;5.426;2024-03-02T08:33:36;2.35;;;0.47;;
67889;SDS011;54685;52.082;5.426;2024-03-02T08:36:04;0.90;;;0.35;;
67889;SDS011;54685;52.082;5.426;2024-03-02T08:38:31;1.48;;;0.60;;
67889;SDS011;54685;52.082;5.426;2024-03-02T08:40:58;1.23;;;0.52;;
67889;SDS011;54685;52.082;5.426;2024-03-02T08:43:25;2.08;;;0.68;;
67889;SDS011;54685;52.082;5.426;2024-03-02T08:45:55;3.10;;;0.65;;
67889;SDS011;54685;52.082;5.426;2024-03-02T08:48:22;2.35;;;0.60;;
67889;SDS011;54685;52.082;5.426;2024-03-02T08:50:49;2.13;;;0.60;;
67889;SDS011;54685;52.082;5.426;2024-03-02T08:53:16;5.32;;;0.70;;
67889;SDS011;54685;52.082;5.426;2024-03-02T08:55:46;2.50;;;0.55;;
67889;SDS011;54685;52.082;5.426;2024-03-02T08:58:13;3.42;;;0.63;;
67889;SDS011;54685;52.082;5.426;2024-03-02T09:00:40;1.83;;;0.55;;
67889;SDS011;54685;52.082;5.426;2024-03-02T09:03:07;3.83;;;0.88;;
67889;SDS011;54685;52.082;5.426;2024-03-02T09:05:34;3.10;;;0.40;;
67889;SDS011;54685;52.082;5.426;2024-03-02T09:08:01;3.42;;;0.50;;
67889;SDS011;54685;52.082;5.426;2024-03-02T09:10:29;3.65;;;0.50;;
67889;SDS011;54685;52.082;5.426;2024-03-02T09:12:59;2.70;;;0.70;;
67889;SDS011;54685;52.082;5.426;2024-03-02T09:15:26;2.33;;;0.55;;
67889;SDS011;54685;52.082;5.426;2024-03-02T09:17:53;7.05;;;1.10;;
67889;SDS011;54685;52.082;5.426;2024-03-02T09:20:20;6.90;;;1.05;;
67889;SDS011;54685;52.082;5.426;2024-03-02T09:22:47;4.82;;;0.80;;
67889;SDS011;54685;52.082;5.426;2024-03-02T09:25:15;5.07;;;0.75;;
67889;SDS011;54685;52.082;5.426;2024-03-02T09:27:42;2.50;;;0.57;;
67889;SDS011;54685;52.082;5.426;2024-03-02T09:30:09;2.88;;;0.60;;
67889;SDS011;54685;52.082;5.426;2024-03-02T09:32:37;4.85;;;0.70;;
67889;SDS011;54685;52.082;5.426;2024-03-02T09:35:04;2.30;;;0.65;;
67889;SDS011;54685;52.082;5.426;2024-03-02T09:37:31;4.32;;;0.80;;
67889;SDS011;54685;52.082;5.426;2024-03-02T09:39:58;6.20;;;1.00;;
67889;SDS011;54685;52.082;5.426;2024-03-02T09:42:25;3.05;;;0.70;;
67889;SDS011;54685;52.082;5.426;2024-03-02T09:44:53;3.55;;;0.98;;
67889;SDS011;54685;52.082;5.426;2024-03-02T09:47:21;4.22;;;0.93;;
67889;SDS011;54685;52.082;5.426;2024-03-02T09:49:47;4.15;;;0.55;;
67889;SDS011;54685;52.082;5.426;2024-03-02T09:52:15;5.97;;;1.10;;
67889;SDS011;54685;52.082;5.426;2024-03-02T09:54:42;3.08;;;0.77;;
67889;SDS011;54685;52.082;5.426;2024-03-02T09:57:09;2.28;;;0.82;;
67889;SDS011;54685;52.082;5.426;2024-03-02T09:59:36;4.22;;;0.75;;
67889;SDS011;54685;52.082;5.426;2024-03-02T10:02:03;4.72;;;1.08;;
67889;SDS011;54685;52.082;5.426;2024-03-02T10:04:33;2.55;;;0.75;;
67889;SDS011;54685;52.082;5.426;2024-03-02T10:07:12;5.30;;;1.30;;
67889;SDS011;54685;52.082;5.426;2024-03-02T10:09:44;3.92;;;0.98;;
67889;SDS011;54685;52.082;5.426;2024-03-02T10:12:13;7.35;;;1.10;;
67889;SDS011;54685;52.082;5.426;2024-03-02T10:14:41;4.78;;;0.90;;
67889;SDS011;54685;52.082;5.426;2024-03-02T10:17:09;5.22;;;0.88;;
67889;SDS011;54685;52.082;5.426;2024-03-02T10:19:38;7.15;;;0.73;;
67889;SDS011;54685;52.082;5.426;2024-03-02T10:22:08;4.75;;;0.80;;
67889;SDS011;54685;52.082;5.426;2024-03-02T10:27:16;5.22;;;1.00;;
67889;SDS011;54685;52.082;5.426;2024-03-02T10:29:46;4.38;;;0.70;;
67889;SDS011;54685;52.082;5.426;2024-03-02T10:32:14;5.38;;;0.70;;
67889;SDS011;54685;52.082;5.426;2024-03-02T10:34:42;4.45;;;1.20;;
67889;SDS011;54685;52.082;5.426;2024-03-02T10:37:10;2.47;;;1.10;;
67889;SDS011;54685;52.082;5.426;2024-03-02T10:39:39;3.17;;;1.00;;
67889;SDS011;54685;52.082;5.426;2024-03-02T10:42:07;4.13;;;1.00;;
67889;SDS011;54685;52.082;5.426;2024-03-02T10:44:34;2.40;;;0.80;;
67889;SDS011;54685;52.082;5.426;2024-03-02T10:47:03;4.85;;;1.08;;
67889;SDS011;54685;52.082;5.426;2024-03-02T10:49:31;3.35;;;0.90;;
67889;SDS011;54685;52.082;5.426;2024-03-02T10:51:59;4.38;;;0.95;;
67889;SDS011;54685;52.082;5.426;2024-03-02T10:54:27;5.15;;;0.95;;
67889;SDS011;54685;52.082;5.426;2024-03-02T10:56:58;5.20;;;1.13;;
67889;SDS011;54685;52.082;5.426;2024-03-02T10:59:27;5.43;;;1.20;;
67889;SDS011;54685;52.082;5.426;2024-03-02T11:01:59;4.28;;;0.80;;
67889;SDS011;54685;52.082;5.426;2024-03-02T11:04:31;5.25;;;1.08;;
67889;SDS011;54685;52.082;5.426;2024-03-02T11:07:05;2.95;;;0.90;;
67889;SDS011;54685;52.082;5.426;2024-03-02T11:09:35;5.18;;;1.00;;
67889;SDS011;54685;52.082;5.426;2024-03-02T11:14:46;4.43;;;1.08;;
67889;SDS011;54685;52.082;5.426;2024-03-02T11:17:14;4.80;;;0.95;;
67889;SDS011;54685;52.082;5.426;2024-03-02T11:19:42;3.30;;;0.80;;
67889;SDS011;54685;52.082;5.426;2024-03-02T11:22:10;4.20;;;0.90;;
67889;SDS011;54685;52.082;5.426;2024-03-02T11:24:38;3.15;;;0.80;;
67889;SDS011;54685;52.082;5.426;2024-03-02T11:27:08;1.65;;;0.70;;
67889;SDS011;54685;52.082;5.426;2024-03-02T11:29:44;3.17;;;0.73;;
67889;SDS011;54685;52.082;5.426;2024-03-02T11:34:45;1.88;;;0.85;;
67889;SDS011;54685;52.082;5.426;2024-03-02T11:37:16;2.95;;;0.88;;
67889;SDS011;54685;52.082;5.426;2024-03-02T11:39:44;2.85;;;0.88;;
67889;SDS011;54685;52.082;5.426;2024-03-02T11:42:12;2.25;;;0.60;;
67889;SDS011;54685;52.082;5.426;2024-03-02T11:44:46;2.45;;;0.77;;
67889;SDS011;54685;52.082;5.426;2024-03-02T11:47:15;4.95;;;0.75;;
67889;SDS011;54685;52.082;5.426;2024-03-02T11:49:49;27.10;;;1.95;;
67889;SDS011;54685;52.082;5.426;2024-03-02T11:52:17;8.57;;;1.50;;
67889;SDS011;54685;52.082;5.426;2024-03-02T11:54:45;5.95;;;0.98;;
67889;SDS011;54685;52.082;5.426;2024-03-02T11:57:14;3.50;;;0.70;;
67889;SDS011;54685;52.082;5.426;2024-03-02T11:59:42;4.40;;;1.13;;
67889;SDS011;54685;52.082;5.426;2024-03-02T12:02:16;2.67;;;0.90;;
67889;SDS011;54685;52.082;5.426;2024-03-02T12:04:47;4.85;;;0.77;;
67889;SDS011;54685;52.082;5.426;2024-03-02T12:07:19;3.85;;;1.13;;
67889;SDS011;54685;52.082;5.426;2024-03-02T12:09:49;2.83;;;0.85;;
67889;SDS011;54685;52.082;5.426;2024-03-02T12:12:27;5.53;;;1.10;;
67889;SDS011;54685;52.082;5.426;2024-03-02T12:14:54;4.53;;;0.98;;
67889;SDS011;54685;52.082;5.426;2024-03-02T12:17:26;4.40;;;0.80;;
67889;SDS011;54685;52.082;5.426;2024-03-02T12:19:53;4.45;;;0.63;;
67889;SDS011;54685;52.082;5.426;2024-03-02T12:22:20;2.58;;;1.02;;
67889;SDS011;54685;52.082;5.426;2024-03-02T12:24:47;2.60;;;1.02;;
67889;SDS011;54685;52.082;5.426;2024-03-02T12:27:15;3.70;;;0.80;;
67889;SDS011;54685;52.082;5.426;2024-03-02T12:29:43;1.67;;;0.70;;
67889;SDS011;54685;52.082;5.426;2024-03-02T12:32:10;3.75;;;0.82;;
67889;SDS011;54685;52.082;5.426;2024-03-02T12:34:37;2.97;;;0.82;;
67889;SDS011;54685;52.082;5.426;2024-03-02T12:37:05;1.70;;;0.70;;
67889;SDS011;54685;52.082;5.426;2024-03-02T12:39:32;1.08;;;0.60;;
67889;SDS011;54685;52.082;5.426;2024-03-02T12:41:59;1.70;;;0.57;;
67889;SDS011;54685;52.082;5.426;2024-03-02T12:44:28;2.00;;;0.70;;
67889;SDS011;54685;52.082;5.426;2024-03-02T12:46:55;3.33;;;1.05;;
67889;SDS011;54685;52.082;5.426;2024-03-02T12:49:26;4.70;;;0.80;;
67889;SDS011;54685;52.082;5.426;2024-03-02T12:51:54;4.93;;;1.13;;
67889;SDS011;54685;52.082;5.426;2024-03-02T12:54:23;8.70;;;1.08;;
67889;SDS011;54685;52.082;5.426;2024-03-02T12:56:51;2.75;;;0.80;;
67889;SDS011;54685;52.082;5.426;2024-03-02T12:59:21;2.60;;;0.88;;
67889;SDS011;54685;52.082;5.426;2024-03-02T13:01:51;5.43;;;1.00;;
67889;SDS011;54685;52.082;5.426;2024-03-02T13:04:26;8.50;;;0.85;;
67889;SDS011;54685;52.082;5.426;2024-03-02T13:06:55;3.53;;;1.15;;
67889;SDS011;54685;52.082;5.426;2024-03-02T13:09:24;4.95;;;1.25;;
67889;SDS011;54685;52.082;5.426;2024-03-02T13:11:52;6.18;;;1.00;;
67889;SDS011;54685;52.082;5.426;2024-03-02T13:14:21;3.58;;;1.35;;
67889;SDS011;54685;52.082;5.426;2024-03-02T13:16:51;4.32;;;0.98;;
67889;SDS011;54685;52.082;5.426;2024-03-02T13:19:19;3.10;;;0.93;;
67889;SDS011;54685;52.082;5.426;2024-03-02T13:21:45;3.00;;;1.10;;
67889;SDS011;54685;52.082;5.426;2024-03-02T13:24:12;11.45;;;1.45;;
67889;SDS011;54685;52.082;5.426;2024-03-02T13:26:39;4.78;;;1.08;;
67889;SDS011;54685;52.082;5.426;2024-03-02T13:29:07;3.50;;;1.13;;
67889;SDS011;54685;52.082;5.426;2024-03-02T13:31:34;3.65;;;1.10;;
67889;SDS011;54685;52.082;5.426;2024-03-02T13:34:01;4.68;;;1.00;;
67889;SDS011;54685;52.082;5.426;2024-03-02T13:36:27;3.00;;;0.90;;
67889;SDS011;54685;52.082;5.426;2024-03-02T13:38:54;2.97;;;1.00;;
67889;SDS011;54685;52.082;5.426;2024-03-02T13:41:21;1.75;;;0.65;;
67889;SDS011;54685;52.082;5.426;2024-03-02T13:43:48;3.35;;;0.93;;
67889;SDS011;54685;52.082;5.426;2024-03-02T13:46:17;4.47;;;1.23;;
67889;SDS011;54685;52.082;5.426;2024-03-02T13:48:44;5.22;;;1.42;;
67889;SDS011;54685;52.082;5.426;2024-03-02T13:51:11;2.53;;;0.98;;
67889;SDS011;54685;52.082;5.426;2024-03-02T13:53:37;2.90;;;1.00;;
67889;SDS011;54685;52.082;5.426;2024-03-02T13:56:04;2.67;;;0.98;;
67889;SDS011;54685;52.082;5.426;2024-03-02T13:58:31;1.77;;;0.73;;
67889;SDS011;54685;52.082;5.426;2024-03-02T14:00:58;4.40;;;1.15;;
67889;SDS011;54685;52.082;5.426;2024-03-02T14:03:25;4.13;;;0.98;;
67889;SDS011;54685;52.082;5.426;2024-03-02T14:05:56;2.03;;;0.80;;
67889;SDS011;54685;52.082;5.426;2024-03-02T14:08:23;2.53;;;0.95;;
67889;SDS011;54685;52.082;5.426;2024-03-02T14:10:50;3.70;;;0.93;;
67889;SDS011;54685;52.082;5.426;2024-03-02T14:13:17;4.63;;;1.13;;
67889;SDS011;54685;52.082;5.426;2024-03-02T14:15:44;4.35;;;1.10;;
67889;SDS011;54685;52.082;5.426;2024-03-02T14:18:12;6.10;;;1.10;;
67889;SDS011;54685;52.082;5.426;2024-03-02T14:20:39;3.13;;;0.90;;
67889;SDS011;54685;52.082;5.426;2024-03-02T14:23:08;2.83;;;1.00;;
67889;SDS011;54685;52.082;5.426;2024-03-02T14:25:36;3.50;;;1.15;;
67889;SDS011;54685;52.082;5.426;2024-03-02T14:28:03;3.45;;;0.93;;
67889;SDS011;54685;52.082;5.426;2024-03-02T14:30:50;4.97;;;1.25;;
67889;SDS011;54685;52.082;5.426;2024-03-02T14:33:17;4.43;;;1.23;;
67889;SDS011;54685;52.082;5.426;2024-03-02T14:35:44;3.35;;;0.93;;
67889;SDS011;54685;52.082;5.426;2024-03-02T14:38:12;2.33;;;0.73;;
67889;SDS011;54685;52.082;5.426;2024-03-02T14:40:39;2.67;;;1.00;;
67889;SDS011;54685;52.082;5.426;2024-03-02T14:43:06;4.20;;;1.63;;
67889;SDS011;54685;52.082;5.426;2024-03-02T14:45:33;4.05;;;1.13;;
67889;SDS011;54685;52.082;5.426;2024-03-02T14:47:59;2.75;;;1.40;;
67889;SDS011;54685;52.082;5.426;2024-03-02T14:50:27;4.95;;;0.80;;
67889;SDS011;54685;52.082;5.426;2024-03-02T14:52:54;3.25;;;0.63;;
67889;SDS011;54685;52.082;5.426;2024-03-02T14:55:28;2.45;;;0.80;;
67889;SDS011;54685;52.082;5.426;2024-03-02T14:57:55;2.83;;;1.00;;
67889;SDS011;54685;52.082;5.426;2024-03-02T15:00:22;1.48;;;0.82;;
67889;SDS011;54685;52.082;5.426;2024-03-02T15:02:49;2.13;;;0.82;;
67889;SDS011;54685;52.082;5.426;2024-03-02T15:05:16;6.55;;;0.90;;